Time;durP1;ratioP1;P1;durP2;ratioP2;P2;SDS_P1;SDS_P2;PMS_P1;PMS_P2;Temp;Humidity;BMP_temperature;BMP_pressure;BME280_temperature;BME280_humidity;BME280_pressure;Samples;Min_cycle;Max_cycle;Signal;HPM_P1;HPM_P2
2021/07/09 00:02:46;;;;;;;67.13;33.70;;;;;;;;;;5060189;28;20389;-75
2021/07/09 00:05:12;;;;;;;43.60;31.53;;;;;;;;;;5073086;28;20390;-75
2021/07/09 00:07:38;;;;;;;65.17;32.30;;;;;;;;;;5057131;28;20513;-75
2021/07/09 00:10:05;;;;;;;70.00;35.87;;;;;;;;;;5052884;28;20934;-75
2021/07/09 00:12:31;;;;;;;44.73;31.80;;;;;;;;;;5053350;28;20422;-75
2021/07/09 00:14:57;;;;;;;81.50;37.83;;;;;;;;;;5070027;28;20876;-75
2021/07/09 00:17:23;;;;;;;62.83;31.67;;;;;;;;;;5064831;28;20890;-75
2021/07/09 00:19:49;;;;;;;79.53;39.30;;;;;;;;;;5073214;28;20403;-75
2021/07/09 00:22:15;;;;;;;63.20;34.43;;;;;;;;;;5055975;28;20446;-75
2021/07/09 00:24:42;;;;;;;54.67;35.30;;;;;;;;;;5053342;28;20802;-75
2021/07/09 00:27:08;;;;;;;58.47;36.27;;;;;;;;;;5052486;28;20398;-75
2021/07/09 00:29:34;;;;;;;93.17;37.80;;;;;;;;;;5052881;28;20456;-75
2021/07/09 00:32:00;;;;;;;61.80;38.20;;;;;;;;;;5065725;28;20393;-75
2021/07/09 00:34:26;;;;;;;101.33;47.50;;;;;;;;;;5070837;28;20384;-75
2021/07/09 00:36:52;;;;;;;86.73;45.80;;;;;;;;;;5072765;28;20393;-76
2021/07/09 00:39:19;;;;;;;96.97;47.30;;;;;;;;;;5073040;28;20479;-75
2021/07/09 00:41:45;;;;;;;105.20;50.00;;;;;;;;;;5073110;28;20935;-75
2021/07/09 00:44:11;;;;;;;85.43;43.47;;;;;;;;;;5072297;28;20747;-76
2021/07/09 00:46:41;;;;;;;104.67;50.17;;;;;;;;;;5053137;28;20448;-75
2021/07/09 00:49:09;;;;;;;105.23;49.50;;;17.80;99.90;;;;;;5052909;28;20417;-75
2021/07/09 00:51:36;;;;;;;136.17;54.47;;;;;;;;;;5052775;28;20458;-75
2021/07/09 00:54:02;;;;;;;101.80;48.37;;;17.80;99.90;;;;;;5052453;28;20373;-75
2021/07/09 00:56:30;;;;;;;86.97;45.27;;;17.80;99.90;;;;;;5052631;28;20889;-75
2021/07/09 00:58:57;;;;;;;82.00;44.50;;;17.80;99.90;;;;;;5052480;28;20420;-75
2021/07/09 01:01:23;;;;;;;125.67;53.10;;;;;;;;;;5061490;28;20769;-75
2021/07/09 01:03:49;;;;;;;120.60;51.43;;;;;;;;;;5052521;28;20407;-75
2021/07/09 01:06:16;;;;;;;114.37;52.53;;;;;;;;;;5061700;28;20511;-75
2021/07/09 01:08:42;;;;;;;125.23;54.20;;;;;;;;;;5070677;28;20391;-75
2021/07/09 01:11:09;;;;;;;124.97;52.37;;;17.80;1.00;;;;;;5070341;28;20812;-75
2021/07/09 01:13:35;;;;;;;99.87;49.17;;;;;;;;;;5063469;28;20396;-75
2021/07/09 01:16:01;;;;;;;110.53;47.60;;;;;;;;;;5051163;28;20752;-75
2021/07/09 01:18:28;;;;;;;101.43;48.27;;;;;;;;;;5052010;28;20884;-76
2021/07/09 01:20:54;;;;;;;89.50;45.60;;;;;;;;;;5054360;28;20787;-75
2021/07/09 01:23:20;;;;;;;125.40;51.17;;;;;;;;;;5067552;28;20871;-75
2021/07/09 01:25:46;;;;;;;128.00;49.07;;;;;;;;;;5051944;28;20400;-75
2021/07/09 01:28:12;;;;;;;97.83;46.73;;;;;;;;;;5052322;28;20389;-75
2021/07/09 01:30:39;;;;;;;86.63;46.23;;;;;;;;;;5052619;28;20779;-75
2021/07/09 01:33:05;;;;;;;83.87;44.23;;;;;;;;;;5072613;28;20409;-75
2021/07/09 01:35:32;;;;;;;73.17;40.83;;;;;;;;;;5070532;28;20411;-75
2021/07/09 01:38:04;;;;;;;73.90;42.60;;;17.70;1.00;;;;;;5064190;28;20477;-75
2021/07/09 01:40:31;;;;;;;86.13;42.80;;;17.70;99.90;;;;;;5052020;28;20414;-75
2021/07/09 01:43:03;;;;;;;105.33;46.87;;;17.70;99.90;;;;;;5052106;28;20418;-75
2021/07/09 01:45:29;;;;;;;107.43;44.50;;;;;;;;;;5097251;28;20488;-75
2021/07/09 01:47:55;;;;;;;78.70;42.30;;;;;;;;;;5064976;28;20419;-75
2021/07/09 01:50:22;;;;;;;72.20;41.40;;;;;;;;;;5051839;28;20437;-76
2021/07/09 01:52:48;;;;;;;81.83;42.93;;;;;;;;;;5052106;28;20392;-75
2021/07/09 01:55:15;;;;;;;80.43;42.73;;;;;;;;;;5051940;28;20389;-75
2021/07/09 01:57:42;;;;;;;66.67;39.83;;;;;;;;;;5052341;28;20461;-75
2021/07/09 02:00:10;;;;;;;78.77;42.10;;;;;;;;;;5060670;28;20410;-75
2021/07/09 02:02:38;;;;;;;72.47;41.33;;;;;;;;;;5062391;28;20505;-75
2021/07/09 02:05:08;;;;;;;88.63;41.53;;;17.70;99.90;;;;;;5051839;28;20469;-75
2021/07/09 02:07:34;;;;;;;79.83;43.40;;;;;;;;;;5053304;28;20485;-75
2021/07/09 02:10:00;;;;;;;86.27;44.43;;;;;;;;;;5053990;28;20943;-75
2021/07/09 02:12:27;;;;;;;70.83;41.70;;;17.80;1.00;;;;;;5055449;28;20792;-75
2021/07/09 02:14:54;;;;;;;79.90;43.40;;;17.80;1.00;;;;;;5055640;28;20426;-75
2021/07/09 02:17:21;;;;;;;98.57;43.70;;;;;;;;;;5062105;28;20403;-75
2021/07/09 02:19:48;;;;;;;116.53;46.60;;;;;;;;;;5065712;28;20440;-75
2021/07/09 02:22:15;;;;;;;86.30;42.27;;;;;;;;;;5075421;28;20402;-76
2021/07/09 02:24:43;;;;;;;90.80;43.33;;;17.80;1.00;;;;;;5075498;28;20460;-75
2021/07/09 02:27:10;;;;;;;108.27;33.20;;;;;;;;;;5075214;28;20433;-76
2021/07/09 02:29:36;;;;;;;47.20;25.83;;;;;;;;;;5064163;28;20436;-75
2021/07/09 02:32:06;;;;;;;56.03;32.77;;;17.70;1.00;;;;;;5055010;28;20403;-75
2021/07/09 02:34:33;;;;;;;64.13;33.80;;;17.70;1.00;;;;;;5055783;28;20411;-75
2021/07/09 02:36:59;;;;;;;64.20;33.33;;;;;;;;;;5075340;28;20947;-75
2021/07/09 02:39:25;;;;;;;78.10;35.97;;;;;;;;;;5059742;28;20417;-75
2021/07/09 02:41:52;;;;;;;87.03;36.00;;;;;;;;;;5068869;28;20432;-75
2021/07/09 02:44:18;;;;;;;54.50;35.37;;;;;;;;;;5055368;28;20741;-75
2021/07/09 02:46:44;;;;;;;54.03;30.10;;;;;;;;;;5054513;28;20474;-75
2021/07/09 02:49:10;;;;;;;53.73;33.20;;;;;;;;;;5066049;28;20436;-75
2021/07/09 02:51:36;;;;;;;56.27;33.73;;;;;;;;;;5075078;28;20397;-75
2021/07/09 02:54:03;;;;;;;55.90;35.07;;;17.70;1.00;;;;;;5074562;28;20461;-75
2021/07/09 02:56:29;;;;;;;47.30;32.87;;;;;;;;;;5074760;28;20399;-75
2021/07/09 02:58:58;;;;;;;63.23;33.60;;;;;;;;;;5067664;28;20880;-75
2021/07/09 03:01:24;;;;;;;61.63;36.00;;;;;;;;;;5054245;28;20455;-75
2021/07/09 03:03:50;;;;;;;67.17;36.77;;;;;;;;;;5053784;28;20465;-75
2021/07/09 03:06:16;;;;;;;49.80;31.03;;;;;;;;;;5054850;28;20409;-75
2021/07/09 03:08:42;;;;;;;59.50;36.47;;;;;;;;;;5054474;28;20392;-75
2021/07/09 03:11:08;;;;;;;94.97;39.57;;;;;;;;;;5055480;28;20468;-75
2021/07/09 03:13:35;;;;;;;51.37;33.07;;;;;;;;;;5066599;28;20844;-75
2021/07/09 03:16:01;;;;;;;52.37;34.53;;;;;;;;;;5059644;28;20476;-75
2021/07/09 03:18:27;;;;;;;72.97;36.73;;;;;;;;;;5053000;28;20898;-75
2021/07/09 03:20:54;;;;;;;95.77;39.13;;;;;;;;;;5068765;28;20443;-75
2021/07/09 03:23:20;;;;;;;58.30;36.70;;;;;;;;;;5073052;28;20747;-75
2021/07/09 03:25:46;;;;;;;84.73;38.27;;;;;;;;;;5071707;28;20399;-75
2021/07/09 03:28:12;;;;;;;64.90;39.27;;;;;;;;;;5067133;28;20761;-75
2021/07/09 03:30:39;;;;;;;63.77;37.37;;;;;;;;;;5053856;28;20462;-75
2021/07/09 03:33:05;;;;;;;64.00;38.40;;;;;;;;;;5071142;28;20413;-75
2021/07/09 03:35:31;;;;;;;61.43;39.47;;;;;;;;;;5072323;28;20388;-75
2021/07/09 03:37:57;;;;;;;64.57;39.40;;;;;;;;;;5054705;28;20749;-75
2021/07/09 03:40:23;;;;;;;55.80;38.20;;;;;;;;;;5053565;28;20398;-75
2021/07/09 03:42:49;;;;;;;68.73;37.90;;;;;;;;;;5054372;28;20868;-75
2021/07/09 03:45:15;;;;;;;65.57;38.80;;;;;;;;;;5053861;28;20836;-75
2021/07/09 03:47:41;;;;;;;115.63;44.87;;;;;;;;;;5067965;28;20920;-75
2021/07/09 03:50:08;;;;;;;62.73;38.83;;;;;;;;;;5072021;28;20429;-75
2021/07/09 03:52:34;;;;;;;64.37;39.60;;;;;;;;;;5073427;28;20765;-75
2021/07/09 03:55:00;;;;;;;67.13;41.10;;;;;;;;;;5073764;28;20366;-75
2021/07/09 03:57:26;;;;;;;90.10;43.77;;;;;;;;;;5055774;28;20421;-75
2021/07/09 03:59:52;;;;;;;68.33;39.20;;;;;;;;;;5067947;28;20420;-75
2021/07/09 04:02:18;;;;;;;75.67;41.63;;;;;;;;;;5053481;28;20393;-75
2021/07/09 04:04:44;;;;;;;69.63;39.23;;;;;;;;;;5052224;28;20421;-75
2021/07/09 04:07:10;;;;;;;74.37;43.03;;;;;;;;;;5070866;28;20433;-75
2021/07/09 04:09:36;;;;;;;91.97;42.07;;;;;;;;;;5068945;28;20577;-75
2021/07/09 04:12:03;;;;;;;77.10;43.80;;;;;;;;;;5053416;28;20372;-76
2021/07/09 04:14:29;;;;;;;65.60;40.77;;;;;;;;;;5071284;28;20482;-75
2021/07/09 04:16:55;;;;;;;98.67;43.53;;;;;;;;;;5072987;28;20879;-76
2021/07/09 04:19:21;;;;;;;74.50;43.10;;;;;;;;;;5073451;28;20835;-75
2021/07/09 04:21:47;;;;;;;85.97;45.30;;;;;;;;;;5072264;28;20388;-75
2021/07/09 04:24:13;;;;;;;92.17;45.23;;;;;;;;;;5056368;28;20415;-75
2021/07/09 04:26:39;;;;;;;97.90;48.93;;;;;;;;;;5053232;28;20840;-75
2021/07/09 04:29:05;;;;;;;91.97;46.20;;;;;;;;;;5072664;28;20410;-75
2021/07/09 04:31:31;;;;;;;89.87;46.37;;;;;;;;;;5063253;28;20732;-75
2021/07/09 04:33:57;;;;;;;122.70;49.67;;;;;;;;;;5067753;28;20469;-75
2021/07/09 04:36:24;;;;;;;104.43;48.97;;;;;;;;;;5052792;28;20385;-76
2021/07/09 04:38:50;;;;;;;121.60;50.40;;;;;;;;;;5052544;28;20381;-75
2021/07/09 04:41:16;;;;;;;143.23;52.60;;;;;;;;;;5052034;28;20389;-75
2021/07/09 04:43:42;;;;;;;126.27;50.40;;;;;;;;;;5070964;28;20403;-75
2021/07/09 04:46:09;;;;;;;111.10;46.90;;;;;;;;;;5072283;28;20428;-75
2021/07/09 04:48:35;;;;;;;92.97;47.50;;;;;;;;;;5072725;28;20394;-76
2021/07/09 04:51:04;;;;;;;88.07;46.77;;;;;;;;;;5059859;28;20505;-75
2021/07/09 04:53:31;;;;;;;109.80;50.23;;;;;;;;;;5052635;28;20894;-75
2021/07/09 04:55:57;;;;;;;128.10;53.07;;;;;;;;;;5052246;28;20767;-75
2021/07/09 04:58:23;;;;;;;111.77;51.20;;;;;;;;;;5069661;28;20402;-75
2021/07/09 05:00:49;;;;;;;106.37;50.47;;;;;;;;;;5055686;28;20390;-75
2021/07/09 05:03:16;;;;;;;123.60;51.00;;;;;;;;;;5052323;28;20426;-75
2021/07/09 05:05:42;;;;;;;139.70;53.73;;;;;;;;;;5061943;28;20417;-75
2021/07/09 05:08:08;;;;;;;108.67;50.53;;;;;;;;;;5056841;28;20448;-75
2021/07/09 05:10:34;;;;;;;121.93;52.53;;;;;;;;;;5062143;28;20822;-75
2021/07/09 05:13:00;;;;;;;120.27;54.13;;;;;;;;;;5052355;28;20410;-75
2021/07/09 05:15:32;;;;;;;107.47;51.27;;;;;;;;;;5052549;28;20405;-75
2021/07/09 05:17:58;;;;;;;124.30;52.57;;;;;;;;;;5052813;28;20411;-75
2021/07/09 05:20:24;;;;;;;140.20;53.30;;;;;;;;;;5052617;28;20406;-75
2021/07/09 05:22:50;;;;;;;113.03;53.23;;;;;;;;;;5059891;28;20384;-75
2021/07/09 05:25:17;;;;;;;111.47;52.17;;;;;;;;;;5053845;28;20466;-75
2021/07/09 05:27:43;;;;;;;111.67;51.83;;;;;;;;;;5054401;28;20425;-75
2021/07/09 05:30:09;;;;;;;134.13;56.33;;;;;;;;;;5052641;28;20469;-76
2021/07/09 05:32:35;;;;;;;170.57;60.10;;;;;;;;;;5052384;28;20873;-75
2021/07/09 05:35:02;;;;;;;159.97;59.30;;;;;;;;;;5065950;28;20401;-75
2021/07/09 05:37:29;;;;;;;108.40;52.83;;;;;;;;;;5071381;28;20394;-75
2021/07/09 05:39:55;;;;;;;107.00;52.67;;;;;;;;;;5071878;28;20450;-75
2021/07/09 05:42:21;;;;;;;167.03;60.43;;;;;;;;;;5069436;28;20812;-75
2021/07/09 05:44:47;;;;;;;118.40;53.30;;;;;;;;;;5061972;28;20883;-75
2021/07/09 05:47:14;;;;;;;111.83;52.33;;;;;;;;;;5075151;28;20438;-75
2021/07/09 05:49:40;;;;;;;146.73;58.23;;;;;;;;;;5074643;28;20451;-75
2021/07/09 05:52:06;;;;;;;154.67;59.30;;;;;;;;;;5061857;28;20401;-75
2021/07/09 05:54:32;;;;;;;138.87;57.97;;;;;;;;;;5062771;28;20394;-75
2021/07/09 05:56:58;;;;;;;132.87;56.83;;;;;;;;;;5055286;28;20387;-78
2021/07/09 05:59:24;;;;;;;135.07;56.77;;;;;;;;;;5055013;28;20374;-80
2021/07/09 06:01:50;;;;;;;146.13;60.93;;;;;;;;;;5055296;28;20414;-75
2021/07/09 06:04:17;;;;;;;46.90;28.30;;;;;;;;;;5058909;28;20748;-75
2021/07/09 06:06:43;;;;;;;71.00;36.00;;;;;;;;;;5065090;28;20437;-75
2021/07/09 06:09:09;;;;;;;63.20;33.27;;;;;;;;;;5056122;28;20398;-75
2021/07/09 06:11:36;;;;;;;79.63;44.70;;;;;;;;;;5055005;28;20404;-75
2021/07/09 06:14:02;;;;;;;101.10;49.03;;;17.90;99.90;;;;;;5055089;28;20407;-75
2021/07/09 06:16:28;;;;;;;102.90;47.60;;;;;;;;;;5058257;28;20485;-75
2021/07/09 06:18:54;;;;;;;74.63;43.50;;;;;;;;;;5055643;28;20492;-75
2021/07/09 06:21:21;;;;;;;110.00;50.53;;;;;;;;;;5055348;28;20372;-75
2021/07/09 06:23:47;;;;;;;78.13;44.67;;;;;;;;;;5054787;28;20797;-75
2021/07/09 06:26:13;;;;;;;78.07;45.27;;;;;;;;;;5070829;28;20503;-75
2021/07/09 06:28:39;;;;;;;77.33;44.23;;;;;;;;;;5074987;28;20377;-75
2021/07/09 06:31:06;;;;;;;101.73;47.90;;;;;;;;;;5072771;28;20426;-75
2021/07/09 06:33:32;;;;;;;83.87;46.40;;;;;;;;;;5060411;28;20408;-75
2021/07/09 06:35:58;;;;;;;80.60;46.60;;;;;;;;;;5054611;28;20382;-75
2021/07/09 06:38:24;;;;;;;104.57;48.40;;;;;;;;;;5054220;28;21027;-75
2021/07/09 06:40:50;;;;;;;287.57;75.43;;;;;;;;;;5056294;28;20401;-75
2021/07/09 06:43:16;;;;;;;118.27;54.47;;;;;;;;;;5072002;28;20481;-75
2021/07/09 06:45:42;;;;;;;104.37;52.17;;;;;;;;;;5069906;28;20475;-75
2021/07/09 06:48:08;;;;;;;83.23;47.90;;;;;;;;;;5059794;28;20485;-75
2021/07/09 06:50:41;;;;;;;93.97;50.27;;;19.50;99.90;;;;;;5054345;28;20397;-75
2021/07/09 06:53:07;;;;;;;114.60;51.43;;;;;;;;;;5054020;28;20811;-75
2021/07/09 06:55:33;;;;;;;88.17;48.10;;;;;;;;;;5053917;28;20459;-75
2021/07/09 06:57:59;;;;;;;105.40;52.87;;;;;;;;;;5059145;28;20401;-75
2021/07/09 07:00:26;;;;;;;107.37;53.80;;;;;;;;;;5074081;28;20456;-75
2021/07/09 07:02:52;;;;;;;96.97;50.97;;;;;;;;;;5074078;28;20368;-75
2021/07/09 07:05:18;;;;;;;87.43;47.90;;;;;;;;;;5074298;28;20401;-75
2021/07/09 07:07:44;;;;;;;89.20;49.03;;;;;;;;;;5072048;28;20436;-75
2021/07/09 07:10:11;;;;;;;123.50;53.73;;;;;;;;;;5073834;28;20775;-75
2021/07/09 07:12:38;;;;;;;109.57;53.57;;;19.70;99.90;;;;;;5073522;28;20401;-75
2021/07/09 07:15:06;;;;;;;96.03;51.20;;;19.80;99.90;;;;;;5073334;28;20822;-75
2021/07/09 07:17:32;;;;;;;93.13;49.57;;;;;;;;;;5073816;28;20415;-75
2021/07/09 07:19:58;;;;;;;96.47;51.30;;;;;;;;;;5073782;28;20890;-75
2021/07/09 07:22:24;;;;;;;111.67;55.10;;;;;;;;;;5072072;28;20763;-75
2021/07/09 07:24:51;;;;;;;108.73;54.10;;;;;;;;;;5074129;28;20412;-75
2021/07/09 07:27:19;;;;;;;107.07;54.80;;;;;;;;;;5073764;28;20391;-75
2021/07/09 07:29:45;;;;;;;119.30;55.17;;;;;;;;;;5073662;28;20803;-75
2021/07/09 07:32:12;;;;;;;99.43;52.07;;;;;;;;;;5058898;28;20410;-75
2021/07/09 07:34:38;;;;;;;107.93;52.87;;;;;;;;;;5059314;28;20509;-75
2021/07/09 07:37:04;;;;;;;139.57;57.10;;;;;;;;;;5073413;28;20412;-75
2021/07/09 07:39:30;;;;;;;115.30;54.67;;;;;;;;;;5071971;28;20459;-75
2021/07/09 07:41:56;;;;;;;109.53;55.90;;;;;;;;;;5073040;28;20793;-75
2021/07/09 07:44:22;;;;;;;138.30;61.80;;;;;;;;;;5073317;28;20525;-75
2021/07/09 07:46:50;;;;;;;167.47;65.23;;;;;;;;;;5067883;28;20437;-75
2021/07/09 07:49:16;;;;;;;134.53;59.97;;;;;;;;;;5051744;28;20467;-75
2021/07/09 07:51:42;;;;;;;128.67;60.47;;;;;;;;;;5053343;28;20451;-75
2021/07/09 07:54:08;;;;;;;154.10;63.20;;;;;;;;;;5051448;28;20430;-75
2021/07/09 07:56:34;;;;;;;154.57;65.90;;;;;;;;;;5053102;28;20880;-75
2021/07/09 07:59:00;;;;;;;147.93;63.37;;;;;;;;;;5053005;28;20397;-75
2021/07/09 08:01:30;;;;;;;131.93;60.40;;;;;;;;;;5052860;28;20408;-75
2021/07/09 08:03:55;;;;;;;138.70;58.13;;;;;;;;;;5053525;28;20405;-75
2021/07/09 08:06:22;;;;;;;124.00;58.83;;;;;;;;;;5051857;28;20764;-74
2021/07/09 08:08:48;;;;;;;146.70;63.93;;;;;;;;;;5052913;28;20397;-75
2021/07/09 08:11:14;;;;;;;122.07;58.60;;;;;;;;;;5052796;28;20408;-75
2021/07/09 08:13:40;;;;;;;167.63;66.63;;;;;;;;;;5052093;28;20409;-75
2021/07/09 08:16:07;;;;;;;140.63;60.43;;;19.40;99.90;;;;;;5052951;28;20492;-75
2021/07/09 08:18:33;;;;;;;127.20;60.50;;;19.30;99.90;;;;;;5065106;28;20411;-75
2021/07/09 08:20:59;;;;;;;134.00;60.93;;;;;;;;;;5071913;28;20781;-75
2021/07/09 08:23:25;;;;;;;147.57;62.93;;;;;;;;;;5071877;28;20407;-74
2021/07/09 08:25:51;;;;;;;139.57;62.80;;;;;;;;;;5072404;28;20763;-75
2021/07/09 08:28:19;;;;;;;135.13;64.20;;;;;;;;;;5071892;28;20459;-74
2021/07/09 08:30:46;;;;;;;127.13;58.93;;;;;;;;;;5072631;28;20406;-74
2021/07/09 08:33:12;;;;;;;148.20;63.37;;;;;;;;;;5072270;28;20401;-75
2021/07/09 08:35:38;;;;;;;169.57;68.43;;;19.40;99.90;;;;;;5072007;28;20805;-75
2021/07/09 08:38:04;;;;;;;122.87;60.07;;;;;;;;;;5072783;28;20433;-74
2021/07/09 08:40:31;;;;;;;130.20;61.90;;;;;;;;;;5072348;28;20498;-75
2021/07/09 08:42:57;;;;;;;151.60;65.63;;;;;;;;;;5070744;28;20416;-75
2021/07/09 08:45:23;;;;;;;162.90;67.43;;;;;;;;;;5071380;28;20401;-75
2021/07/09 08:47:49;;;;;;;203.30;76.50;;;;;;;;;;5071960;28;20468;-75
2021/07/09 08:50:15;;;;;;;131.07;62.77;;;;;;;;;;5072062;28;20388;-75
2021/07/09 08:52:44;;;;;;;169.77;67.13;;;;;;;;;;5070876;28;20403;-75
2021/07/09 08:55:12;;;;;;;138.80;65.60;;;19.90;99.90;;;;;;5072153;28;20388;-75
2021/07/09 08:57:40;;;;;;;164.40;66.70;;;19.80;99.90;;;;;;5071905;28;20376;-75
2021/07/09 09:00:26;;;;;;;133.03;62.73;;;19.90;99.90;;;;;;5071953;28;20508;-75
2021/07/09 09:02:53;;;;;;;180.83;72.60;;;20.00;99.90;;;;;;5071005;28;20403;-75
2021/07/09 09:05:24;;;;;;;145.70;64.77;;;20.00;99.90;;;;;;5072107;28;20428;-75
2021/07/09 09:08:05;;;;;;;150.13;67.90;;;;;;;;;;5071796;28;20461;-75
2021/07/09 09:10:35;;;;;;;168.17;69.57;;;;;;;;;;5062720;28;20403;-75
2021/07/09 09:13:10;;;;;;;145.70;65.90;;;;;;;;;;5054872;28;20396;-75
2021/07/09 09:15:38;;;;;;;159.63;67.50;;;20.10;99.90;;;;;;5052203;28;20433;-75
2021/07/09 09:18:20;;;;;;;160.33;67.50;;;;;;;;;;5063338;28;20423;-74
2021/07/09 09:20:46;;;;;;;157.27;67.40;;;;;;;;;;5073667;28;20487;-74
2021/07/09 09:23:12;;;;;;;150.67;69.93;;;;;;;;;;5076366;28;20397;-75
2021/07/09 09:25:39;;;;;;;185.90;74.43;;;;;;;;;;5074201;28;20414;-75
2021/07/09 09:28:09;;;;;;;139.90;63.70;;;;;;;;;;5075371;28;20405;-75
2021/07/09 09:30:36;;;;;;;159.10;68.93;;;;;;;;;;5075491;28;20408;-75
2021/07/09 09:33:07;;;;;;;156.40;68.10;;;20.50;99.90;;;;;;5075924;28;20731;-75
2021/07/09 09:35:42;;;;;;;141.00;66.10;;;20.70;99.90;;;;;;5056794;28;20771;-75
2021/07/09 09:38:10;;;;;;;193.57;72.70;;;;;;;;;;5055874;28;20373;-74
2021/07/09 09:40:37;;;;;;;145.70;66.73;;;;;;;;;;5068809;28;20446;-74
2021/07/09 09:43:19;;;;;;;158.07;68.43;;;21.20;99.90;;;;;;5067993;28;20420;-74
2021/07/09 09:45:56;;;;;;;181.83;71.33;;;;;;;;;;5072148;28;20976;-74
2021/07/09 09:48:22;;;;;;;176.83;72.63;;;;;;;;;;5067527;28;20775;-75
2021/07/09 09:50:49;;;;;;;158.77;71.50;;;21.40;99.90;;;;;;5075450;28;20403;-75
2021/07/09 09:53:37;;;;;;;169.03;69.80;;;21.40;99.90;;;;;;5075656;28;20461;-74
2021/07/09 09:56:06;;;;;;;161.67;71.77;;;;;;;;;;5091925;28;20428;-74
2021/07/09 09:58:32;;;;;;;184.83;73.53;;;;;;;;;;5072228;28;20423;-74
2021/07/09 10:00:59;;;;;;;157.33;69.67;;;;;;;;;;5065795;28;20923;-74
2021/07/09 10:03:25;;;;;;;159.40;70.07;;;;;;;;;;5071090;28;20433;-75
2021/07/09 10:05:51;;;;;;;191.27;72.77;;;;;;;;;;5058016;28;20412;-75
2021/07/09 10:08:19;;;;;;;166.27;69.80;;;;;;;;;;5058744;28;20917;-75
2021/07/09 10:10:46;;;;;;;185.50;72.53;;;;;;;;;;5060690;28;20921;-75
2021/07/09 10:13:16;;;;;;;155.50;70.27;;;;;;;;;;5074921;28;20415;-75
2021/07/09 10:15:44;;;;;;;157.53;69.77;;;21.40;99.90;;;;;;5064847;28;20377;-75
2021/07/09 10:18:17;;;;;;;152.27;70.83;;;21.40;99.90;;;;;;5058091;28;20420;-75
2021/07/09 10:20:45;;;;;;;201.43;76.10;;;21.40;99.90;;;;;;5055039;28;20445;-75
2021/07/09 10:23:13;;;;;;;153.57;71.67;;;21.50;99.90;;;;;;5061186;28;20458;-74
2021/07/09 10:25:39;;;;;;;158.47;70.53;;;21.50;99.90;;;;;;5057883;28;20404;-75
2021/07/09 10:28:09;;;;;;;145.77;68.97;;;;;;;;;;5058885;28;20778;-75
2021/07/09 10:30:40;;;;;;;179.70;72.03;;;21.70;99.90;;;;;;5058639;28;20455;-75
2021/07/09 10:33:25;;;;;;;180.97;76.27;;;;;;;;;;5065881;28;20925;-75
2021/07/09 10:35:51;;;;;;;152.37;69.80;;;;;;;;;;5068237;28;20669;-75
2021/07/09 10:38:19;;;;;;;174.17;73.00;;;;;;;;;;5072000;28;20415;-75
2021/07/09 10:40:46;;;;;;;162.17;71.30;;;;;;;;;;5074510;28;20398;-75
2021/07/09 10:43:14;;;;;;;170.47;72.83;;;;;;;;;;5069004;28;20960;-75
2021/07/09 10:45:41;;;;;;;325.03;105.57;;;;;;;;;;5061425;28;20394;-75
2021/07/09 10:48:08;;;;;;;162.17;70.80;;;22.70;99.90;;;;;;5069276;28;20824;-75
2021/07/09 10:50:47;;;;;;;177.87;74.80;;;;;;;;;;5058299;28;20547;-75
2021/07/09 10:53:17;;;;;;;184.90;76.57;;;;;;;;;;5062747;28;20754;-75
2021/07/09 10:55:46;;;;;;;166.13;74.70;;;;;;;;;;5064392;28;20818;-75
2021/07/09 10:58:21;;;;;;;176.60;75.67;;;23.50;99.90;;;;;;5072819;28;20411;-75
2021/07/09 11:00:56;;;;;;;167.97;78.07;;;;;;;;;;5061465;28;20468;-75
2021/07/09 11:03:24;;;;;;;196.30;83.30;;;23.80;99.90;;;;;;5058627;28;20430;-75
2021/07/09 11:05:50;;;;;;;202.13;77.80;;;;;;;;;;5070891;28;20420;-76
2021/07/09 11:11:03;;;;;;;179.03;76.77;;;;;;;;;;5058028;28;20813;-75
2021/07/09 11:13:42;;;;;;;208.63;81.27;;;;;;;;;;5065541;28;20417;-75
2021/07/09 11:16:32;;;;;;;198.30;79.33;;;24.10;99.90;;;;;;5065391;28;20404;-75
2021/07/09 11:19:03;;;;;;;180.77;77.80;;;;;;;;;;5011415;28;20430;-75
2021/07/09 11:21:32;;;;;;;259.37;91.97;;;;;;;;;;5009465;28;20423;-75
2021/07/09 11:24:09;;;;;;;162.83;76.07;;;24.30;99.90;;;;;;5009448;28;20928;-72
2021/07/09 11:26:35;;;;;;;180.47;77.23;;;;;;;;;;5001498;28;20444;-73
2021/07/09 11:29:16;;;;;;;163.33;76.53;;;;;;;;;;5004605;28;20423;-74
2021/07/09 11:31:42;;;;;;;210.87;86.80;;;;;;;;;;5010827;28;20410;-74
2021/07/09 11:34:12;;;;;;;170.73;80.97;;;24.90;99.90;;;;;;5011429;28;20391;-75
2021/07/09 11:36:42;;;;;;;172.97;80.00;;;25.00;99.90;;;;;;5009816;28;20462;-75
2021/07/09 11:39:11;;;;;;;187.77;80.57;;;25.20;99.90;;;;;;5011384;28;20395;-73
2021/07/09 11:41:53;;;;;;;179.67;79.80;;;;;;;;;;5011454;28;20842;-73
2021/07/09 11:44:20;;;;;;;177.87;76.10;;;25.40;99.90;;;;;;4991890;28;20535;-73
2021/07/09 11:46:49;;;;;;;173.13;75.80;;;25.60;99.90;;;;;;4997888;28;20953;-73
2021/07/09 11:49:18;;;;;;;177.43;78.77;;;;;;;;;;5011112;28;20445;-74
2021/07/09 11:51:48;;;;;;;320.00;111.00;;;;;;;;;;5001943;28;20440;-74
2021/07/09 11:54:14;;;;;;;72.20;45.43;;;;;;;;;;5008859;28;20409;-73
2021/07/09 11:56:41;;;;;;;79.90;43.63;;;;;;;;;;5045611;28;20523;-73
2021/07/09 11:59:16;;;;;;;68.43;46.90;;;;;;;;;;5072606;28;20395;-73
2021/07/09 12:01:42;;;;;;;79.73;49.80;;;;;;;;;;5071218;28;20402;-73
2021/07/09 12:04:08;;;;;;;84.27;49.70;;;;;;;;;;5064820;28;20810;-73
2021/07/09 12:06:34;;;;;;;82.17;50.83;;;;;;;;;;5065509;28;20502;-73
2021/07/09 12:09:00;;;;;;;75.80;48.10;;;;;;;;;;5073260;28;20760;-74
2021/07/09 12:11:26;;;;;;;113.37;58.87;;;;;;;;;;5058630;28;20468;-73
2021/07/09 12:14:06;;;;;;;72.00;37.53;;;27.60;99.90;;;;;;5052255;28;20402;-73
2021/07/09 12:16:32;;;;;;;56.57;40.20;;;;;;;;;;5052400;28;20535;-73
2021/07/09 12:18:58;;;;;;;68.13;47.17;;;;;;;;;;5053314;28;20425;-73
2021/07/09 12:21:25;;;;;;;117.87;57.67;;;27.90;99.90;;;;;;5052119;28;20884;-73
2021/07/09 12:24:11;;;;;;;106.93;58.47;;;;;;;;;;5069507;28;20586;-75
2021/07/09 12:26:37;;;;;;;123.07;62.37;;;;;;;;;;5062346;28;20424;-74
2021/07/09 12:29:03;;;;;;;115.23;61.57;;;;;;;;;;5071616;28;20534;-74
2021/07/09 12:31:29;;;;;;;115.10;67.97;;;;;;;;;;5072297;28;20774;-74
2021/07/09 12:33:55;;;;;;;104.23;60.00;;;;;;;;;;5062310;28;20519;-74
2021/07/09 12:36:22;;;;;;;96.37;61.47;;;;;;;;;;5052371;28;20960;-74
2021/07/09 12:39:00;;;;;;;98.27;59.40;;;28.50;99.90;;;;;;5051766;28;20473;-74
2021/07/09 12:41:35;;;;;;;110.33;64.83;;;28.00;99.90;;;;;;5052647;28;20399;-74
2021/07/09 12:44:08;;;;;;;110.30;62.93;;;28.20;99.90;;;;;;5052644;28;20400;-74
2021/07/09 12:46:34;;;;;;;97.20;60.73;;;28.30;99.90;;;;;;5066663;28;20427;-74
2021/07/09 12:49:02;;;;;;;115.97;66.53;;;;;;;;;;5064723;28;20505;-74
2021/07/09 12:51:42;;;;;;;125.57;65.10;;;28.10;99.90;;;;;;5051855;28;20476;-74
2021/07/09 12:54:14;;;;;;;107.60;63.93;;;28.30;99.90;;;;;;5070984;28;20945;-74
2021/07/09 12:56:43;;;;;;;139.00;72.47;;;28.40;99.90;;;;;;5071717;28;20420;-76
2021/07/09 12:59:11;;;;;;;130.73;70.33;;;28.30;99.90;;;;;;5071031;28;20924;-76
2021/07/09 13:01:42;;;;;;;150.87;79.17;;;28.30;99.90;;;;;;5072312;28;20396;-76
2021/07/09 13:04:23;;;;;;;144.70;79.07;;;28.40;99.90;;;;;;5071331;28;20396;-76
2021/07/09 13:06:49;;;;;;;111.97;65.53;;;;;;;;;;5051478;28;20436;-76
2021/07/09 13:09:20;;;;;;;242.10;95.40;;;28.10;99.90;;;;;;5051231;28;20553;-74
2021/07/09 13:11:50;;;;;;;155.33;80.93;;;27.80;99.90;;;;;;5051461;28;20410;-76
2021/07/09 13:14:29;;;;;;;162.67;82.40;;;27.70;99.90;;;;;;5052249;28;20400;-76
2021/07/09 13:16:56;;;;;;;172.90;84.37;;;;;;;;;;5052108;28;20951;-76
2021/07/09 13:19:59;;;;;;;181.43;84.50;;;27.90;99.90;;;;;;5051767;28;20396;-76
2021/07/09 13:22:45;;;;;;;195.30;91.73;;;28.00;99.90;;;;;;4990514;28;20419;-75
2021/07/09 13:25:19;;;;;;;213.97;94.30;;;27.70;99.90;;;;;;4991620;28;20419;-73
2021/07/09 13:28:14;;;;;;;179.07;87.90;;;27.60;99.90;;;;;;4998132;28;20527;-73
2021/07/09 13:30:42;;;;;;;178.47;83.87;;;;;;;;;;5004955;28;20463;-73
2021/07/09 13:33:09;;;;;;;178.37;85.47;;;27.90;99.90;;;;;;5009313;28;20432;-73
2021/07/09 13:35:35;;;;;;;198.07;93.13;;;;;;;;;;4992513;28;20426;-73
2021/07/09 13:38:01;;;;;;;196.27;88.40;;;;;;;;;;4989865;28;20492;-73
2021/07/09 13:40:27;;;;;;;145.57;78.83;;;;;;;;;;4990519;28;20411;-73
2021/07/09 13:42:53;;;;;;;151.37;79.77;;;;;;;;;;5005337;28;20439;-73
2021/07/09 13:45:19;;;;;;;182.90;84.77;;;;;;;;;;5007410;28;20432;-74
2021/07/09 13:47:45;;;;;;;333.73;117.23;;;;;;;;;;4995981;28;20430;-73
2021/07/09 13:50:12;;;;;;;192.70;90.97;;;;;;;;;;5007992;28;20785;-73
2021/07/09 13:52:40;;;;;;;193.13;94.10;;;;;;;;;;5006532;28;20431;-73